Time;durP1;ratioP1;P1;durP2;ratioP2;P2;SDS_P1;SDS_P2;PMS_P1;PMS_P2;Temp;Humidity;BMP_temperature;BMP_pressure;BME280_temperature;BME280_humidity;BME280_pressure;Samples;Min_cycle;Max_cycle;Signal;HPM_P1;HPM_P2
2023/08/23 00:01:43;;;;;;;2.30;2.20;;;20.40;99.90;;;20.91;86.58;101931.66;5044420;28;20501;-79
2023/08/23 00:04:11;;;;;;;2.70;2.60;;;20.40;99.90;;;20.90;86.61;101930.78;5042139;28;20045;-79
2023/08/23 00:06:40;;;;;;;2.30;2.20;;;20.40;99.90;;;20.84;87.14;101922.00;5044147;28;20053;-80
2023/08/23 00:09:09;;;;;;;2.72;2.63;;;20.40;99.90;;;20.85;87.34;101929.19;5041861;28;20434;-80
2023/08/23 00:11:38;;;;;;;2.67;2.57;;;20.30;99.90;;;20.83;87.44;101920.25;5034086;28;20505;-80
2023/08/23 00:14:06;;;;;;;2.88;2.78;;;20.30;99.90;;;20.84;87.69;101927.41;5033644;28;20140;-80
2023/08/23 00:16:35;;;;;;;2.92;2.83;;;20.30;99.90;;;20.82;87.73;101924.75;5034212;28;20100;-79
2023/08/23 00:19:03;;;;;;;2.40;2.30;;;20.30;99.90;;;20.87;87.53;101921.91;5035434;28;20041;-80
2023/08/23 00:21:31;;;;;;;2.97;2.88;;;20.40;99.90;;;20.89;87.76;101922.75;5043498;28;20040;-80
2023/08/23 00:24:00;;;;;;;2.75;2.65;;;20.40;99.90;;;20.94;87.51;101921.72;5044228;28;20049;-80
2023/08/23 00:26:29;;;;;;;2.55;2.45;;;20.50;99.90;;;20.96;86.97;101914.47;5042004;28;20109;-79
2023/08/23 00:28:58;;;;;;;2.67;2.58;;;20.50;99.90;;;20.97;86.69;101915.31;5045093;28;20099;-79
2023/08/23 00:31:26;;;;;;;2.50;2.40;;;20.50;99.90;;;20.98;86.38;101911.72;5041007;28;20103;-82
2023/08/23 00:33:55;;;;;;;2.70;2.60;;;20.50;99.90;;;21.03;86.34;101912.50;5033723;28;20084;-80
2023/08/23 00:36:23;;;;;;;3.05;2.95;;;20.50;99.90;;;21.09;86.23;101917.69;5033519;28;20666;-79
2023/08/23 00:38:51;;;;;;;2.35;2.25;;;20.60;99.90;;;21.11;86.09;101913.13;5033482;28;20151;-80
2023/08/23 00:41:20;;;;;;;2.33;2.22;;;20.70;99.90;;;21.07;85.75;101912.34;5038100;28;20064;-79
2023/08/23 00:43:50;;;;;;;2.45;2.35;;;20.70;99.90;;;21.13;85.59;101914.88;5041873;28;20132;-81
2023/08/23 00:46:20;;;;;;;2.70;2.60;;;20.70;99.90;;;21.07;85.54;101912.34;5043270;28;20048;-78
2023/08/23 00:48:49;;;;;;;2.60;2.50;;;20.70;99.90;;;21.07;85.58;101912.34;5044098;28;20049;-81
2023/08/23 00:51:18;;;;;;;2.53;2.42;;;20.60;99.90;;;21.05;85.75;101907.94;5041992;28;20510;-80
2023/08/23 00:53:48;;;;;;;2.40;2.30;;;20.60;99.90;;;21.04;85.86;101908.88;5044795;28;20394;-80
2023/08/23 00:56:16;;;;;;;2.28;2.17;;;20.60;99.90;;;21.03;85.85;101901.72;5032942;28;20531;-80
2023/08/23 00:58:46;;;;;;;2.35;2.25;;;20.50;99.90;;;20.99;86.11;101908.97;5032775;28;20463;-81
2023/08/23 01:01:16;;;;;;;2.47;2.38;;;20.50;99.90;;;20.77;86.11;101869.34;5031265;28;20060;-80
2023/08/23 01:03:44;;;;;;;2.80;2.70;;;20.50;99.90;;;21.14;85.98;101908.53;5034274;28;20475;-80
2023/08/23 01:06:30;;;;;;;2.42;2.33;;;20.70;99.90;;;21.11;85.69;101899.69;5049150;28;20291;-80
2023/08/23 01:09:10;;;;;;;2.60;2.50;;;20.70;99.90;;;21.22;85.71;101913.66;5040842;28;20077;-81
2023/08/23 01:11:50;;;;;;;4.32;4.13;;;20.80;99.90;;;21.22;86.10;101906.50;5041316;28;20057;-80
2023/08/23 01:14:26;;;;;;;2.20;2.10;;;20.80;99.90;;;21.28;86.23;101895.53;5041667;28;20170;-80
2023/08/23 01:16:58;;;;;;;3.28;3.17;;;20.80;99.90;;;21.35;86.42;101907.00;5042607;28;20576;-81
2023/08/23 01:19:43;;;;;;;2.75;2.65;;;20.90;99.90;;;21.40;86.47;101907.72;5051471;28;20052;-80
2023/08/23 01:22:19;;;;;;;2.30;2.20;;;21.00;99.90;;;21.38;86.53;101899.69;5032617;28;20045;-80
2023/08/23 01:24:54;;;;;;;2.33;2.22;;;21.00;99.90;;;21.38;86.52;101904.19;5032740;28;20049;-80
2023/08/23 01:27:23;;;;;;;2.30;2.20;;;21.00;99.90;;;21.45;86.47;101906.63;5032814;28;20052;-78
2023/08/23 01:29:51;;;;;;;2.70;2.60;;;21.00;99.90;;;21.28;86.73;101902.72;5037687;28;20115;-80
2023/08/23 01:32:34;;;;;;;2.83;2.72;;;20.90;99.90;;;21.14;87.48;101895.06;5043466;28;20052;-80
2023/08/23 01:35:10;;;;;;;2.40;2.30;;;20.70;99.90;;;21.08;88.55;101897.97;5044144;28;20529;-77
2023/08/23 01:37:41;;;;;;;2.40;2.30;;;20.60;99.90;;;20.98;88.57;101898.28;5041186;28;20049;-78
2023/08/23 01:40:12;;;;;;;2.40;2.30;;;20.50;99.90;;;20.73;88.53;101876.59;5043064;28;20099;-80
2023/08/23 01:42:41;;;;;;;2.45;2.35;;;20.40;99.90;;;20.12;88.52;101764.63;5043099;28;20051;-80
2023/08/23 01:45:10;;;;;;;2.63;2.53;;;20.30;99.90;;;20.71;88.64;101893.72;5041577;28;20080;-79
2023/08/23 01:47:39;;;;;;;2.60;2.50;;;20.30;99.90;;;20.71;88.80;101885.66;5051291;28;20044;-80
2023/08/23 01:50:09;;;;;;;2.60;2.50;;;20.20;99.90;;;20.69;89.22;101885.72;5040309;28;20041;-79
2023/08/23 01:52:38;;;;;;;2.72;2.63;;;20.20;99.90;;;20.72;89.48;101880.22;5043426;28;20063;-80
2023/08/23 01:55:10;;;;;;;2.63;2.53;;;20.20;99.90;;;20.76;90.15;101878.31;5040350;28;20081;-80
2023/08/23 01:57:40;;;;;;;2.50;2.40;;;20.20;99.90;;;20.75;90.75;101868.50;5041471;28;20053;-80
2023/08/23 02:00:10;;;;;;;2.47;2.38;;;20.30;99.90;;;20.78;91.06;101874.66;5049627;28;20096;-80
2023/08/23 02:02:42;;;;;;;2.72;2.63;;;20.30;99.90;;;20.86;91.17;101875.31;5040203;28;20407;-78
2023/08/23 02:05:10;;;;;;;2.40;2.30;;;20.40;99.90;;;20.88;91.37;101886.91;5050340;28;20139;-80
2023/08/23 02:07:39;;;;;;;2.80;2.70;;;20.40;99.90;;;20.87;91.31;101882.44;5040441;28;20041;-79
2023/08/23 02:10:09;;;;;;;2.83;2.72;;;20.40;99.90;;;20.74;91.30;101878.38;5043847;28;20049;-80
2023/08/23 02:12:38;;;;;;;2.70;2.60;;;20.30;99.90;;;20.72;91.86;101885.59;5040702;28;20127;-79
2023/08/23 02:15:08;;;;;;;2.40;2.30;;;20.20;99.90;;;20.73;92.16;101878.44;5040745;28;20049;-81
2023/08/23 02:17:36;;;;;;;2.70;2.60;;;20.20;99.90;;;20.72;92.49;101884.72;5041751;28;20044;-80
2023/08/23 02:20:07;;;;;;;2.50;2.40;;;20.20;99.90;;;20.65;92.54;101874.13;5040113;28;20049;-80
2023/08/23 02:22:35;;;;;;;2.63;2.53;;;20.20;99.90;;;20.57;92.72;101880.69;5043156;28;20228;-80
2023/08/23 02:25:04;;;;;;;2.70;2.60;;;20.10;99.90;;;20.47;92.86;101885.47;5040168;28;20487;-79
2023/08/23 02:27:34;;;;;;;3.22;3.03;;;20.00;99.90;;;20.35;93.34;101879.53;5040124;28;20045;-80
2023/08/23 02:30:02;;;;;;;2.30;2.20;;;19.90;99.90;;;20.27;94.05;101869.00;5032404;28;20065;-80
2023/08/23 02:32:30;;;;;;;3.80;3.60;;;19.80;99.90;;;20.16;94.76;101868.41;5031891;28;20084;-81
2023/08/23 02:34:59;;;;;;;2.30;2.20;;;19.70;99.90;;;20.13;95.39;101857.72;5038929;28;20414;-77
2023/08/23 02:37:27;;;;;;;3.38;3.17;;;19.70;99.90;;;19.91;96.39;101856.56;5035954;28;20037;-80
2023/08/23 02:39:56;;;;;;;2.63;2.53;;;19.50;99.90;;;20.02;97.18;101867.00;5042036;28;20053;-79
2023/08/23 02:42:26;;;;;;;2.88;2.78;;;19.50;99.90;;;20.17;97.31;101861.22;5041507;28;20051;-80
2023/08/23 02:44:56;;;;;;;2.60;2.50;;;19.70;99.90;;;20.27;97.01;101858.25;5041903;28;20045;-78
2023/08/23 02:47:24;;;;;;;2.63;2.53;;;19.80;99.90;;;20.42;96.31;101860.50;5047355;28;20053;-80
2023/08/23 02:49:55;;;;;;;3.03;2.92;;;20.00;99.90;;;20.38;95.81;101861.50;5034693;28;20041;-80
2023/08/23 02:52:23;;;;;;;2.70;2.60;;;20.00;99.90;;;20.41;95.53;101863.22;5035274;28;20045;-80
2023/08/23 02:54:51;;;;;;;3.45;3.25;;;20.00;99.90;;;20.38;95.77;101864.19;5042116;28;20076;-80
2023/08/23 02:57:20;;;;;;;2.70;2.60;;;20.00;99.90;;;20.32;95.85;101853.66;5035619;28;20045;-80
2023/08/23 02:59:48;;;;;;;2.90;2.80;;;19.90;99.90;;;20.22;95.96;101852.16;5045217;28;20049;-80
2023/08/23 03:02:19;;;;;;;3.17;3.08;;;19.80;99.90;;;20.22;96.32;101856.63;5051865;28;20102;-79
2023/08/23 03:04:48;;;;;;;2.40;2.30;;;19.70;99.90;;;20.23;96.71;101859.25;5046248;28;20053;-80
2023/08/23 03:07:16;;;;;;;2.70;2.60;;;19.80;99.90;;;20.32;97.04;101856.34;5042657;28;20128;-78
2023/08/23 03:09:44;;;;;;;2.88;2.78;;;19.90;99.90;;;20.46;96.75;101864.00;5046798;28;20048;-81
2023/08/23 03:12:13;;;;;;;2.40;2.30;;;20.00;99.90;;;20.46;96.42;101864.84;5035248;28;20119;-80
2023/08/23 03:14:41;;;;;;;2.83;2.72;;;20.00;99.90;;;20.47;96.15;101858.56;5034776;28;20049;-80
2023/08/23 03:17:10;;;;;;;2.55;2.45;;;20.10;99.90;;;20.50;95.90;101862.97;5034425;28;20459;-81
2023/08/23 03:19:40;;;;;;;2.50;2.40;;;20.10;99.90;;;20.50;95.80;101866.53;5042090;28;20156;-80
2023/08/23 03:22:08;;;;;;;2.73;2.63;;;20.10;99.90;;;20.50;95.56;101862.97;5051801;28;20406;-79
2023/08/23 03:24:36;;;;;;;2.70;2.60;;;20.10;99.90;;;20.52;95.25;101872.75;5044688;28;20042;-81
2023/08/23 03:27:05;;;;;;;2.53;2.42;;;20.10;99.90;;;20.53;95.40;101873.63;5043022;28;20049;-80
2023/08/23 03:29:35;;;;;;;3.05;2.95;;;20.10;99.90;;;20.47;95.72;101868.44;5045623;28;20068;-80
2023/08/23 03:32:04;;;;;;;3.00;2.85;;;20.00;99.90;;;20.43;95.67;101870.34;5042045;28;20115;-80
2023/08/23 03:34:32;;;;;;;2.60;2.50;;;20.00;99.90;;;20.38;95.82;101869.56;5046379;28;20473;-80
2023/08/23 03:37:02;;;;;;;2.50;2.40;;;19.90;99.90;;;20.38;95.65;101874.09;5033458;28;20037;-81
2023/08/23 03:39:30;;;;;;;2.80;2.70;;;19.90;99.90;;;20.42;95.79;101873.06;5041169;28;20037;-80
2023/08/23 03:41:58;;;;;;;2.47;2.38;;;20.00;99.90;;;20.46;95.78;101870.22;5042583;28;20053;-80
2023/08/23 03:44:27;;;;;;;3.22;3.13;;;20.00;99.90;;;20.45;95.41;101868.50;5043763;28;20049;-80
2023/08/23 03:46:57;;;;;;;2.58;2.47;;;20.10;99.90;;;20.51;95.53;101878.19;5039718;28;20491;-79
2023/08/23 03:49:25;;;;;;;2.30;2.20;;;20.10;99.90;;;20.56;95.32;101876.22;5045276;28;20104;-79
2023/08/23 03:51:57;;;;;;;2.80;2.70;;;20.10;99.90;;;20.57;95.04;101872.63;5050024;28;20049;-80
2023/08/23 03:54:27;;;;;;;2.63;2.53;;;20.20;99.90;;;20.61;94.96;101869.78;5052684;28;20544;-80
2023/08/23 03:56:55;;;;;;;2.70;2.60;;;20.20;99.90;;;20.58;94.75;101860.94;5046135;28;20053;-78
2023/08/23 03:59:23;;;;;;;2.67;2.58;;;20.20;99.90;;;20.60;94.53;101861.75;5042709;28;20076;-79
2023/08/23 04:01:52;;;;;;;2.58;2.47;;;20.20;99.90;;;20.50;94.67;101858.47;5044677;28;20123;-79
2023/08/23 04:04:22;;;;;;;2.70;2.60;;;20.10;99.90;;;20.56;94.76;101862.78;5051119;28;20045;-79
2023/08/23 04:06:50;;;;;;;2.70;2.60;;;20.10;99.90;;;20.56;94.51;101866.34;5043046;28;20049;-80
2023/08/23 04:09:18;;;;;;;2.72;2.63;;;20.10;99.90;;;20.51;94.54;101864.72;5044340;28;20470;-80
2023/08/23 04:11:48;;;;;;;2.72;2.63;;;20.10;99.90;;;20.46;94.94;101859.47;5043217;28;20478;-80
2023/08/23 04:14:17;;;;;;;2.88;2.78;;;20.00;99.90;;;20.46;95.16;101866.69;5043825;28;20060;-79
2023/08/23 04:16:46;;;;;;;2.65;2.55;;;20.00;99.90;;;20.43;95.56;101862.28;5042063;28;20054;-78
2023/08/23 04:19:15;;;;;;;2.80;2.70;;;20.00;99.90;;;20.42;95.74;101849.75;5032284;28;20415;-79
2023/08/23 04:21:46;;;;;;;2.53;2.42;;;20.00;99.90;;;20.43;96.01;101856.00;5040100;28;20049;-80
2023/08/23 04:24:16;;;;;;;2.58;2.47;;;20.00;99.90;;;20.40;96.03;101856.09;5047976;28;20099;-81
2023/08/23 04:26:45;;;;;;;2.70;2.60;;;19.90;99.90;;;20.39;95.86;101854.34;5042104;28;20397;-80
2023/08/23 04:29:15;;;;;;;2.38;2.28;;;19.90;99.90;;;20.40;95.94;101850.75;5050053;28;20045;-80
2023/08/23 04:31:43;;;;;;;2.75;2.65;;;19.90;99.90;;;20.51;95.98;101848.59;5051702;28;20056;-81
2023/08/23 04:34:20;;;;;;;2.83;2.72;;;20.00;99.90;;;20.52;96.08;101855.72;5040730;28;20499;-79
2023/08/23 04:36:48;;;;;;;12.07;8.20;;;20.10;99.90;;;20.58;96.21;101845.69;5044684;28;20041;-78
2023/08/23 04:39:17;;;;;;;2.35;2.25;;;20.10;99.90;;;20.62;96.33;101852.72;5049820;28;20061;-81
2023/08/23 04:41:45;;;;;;;2.50;2.40;;;20.20;99.90;;;20.63;96.98;101853.63;5050721;28;20053;-80
2023/08/23 04:44:15;;;;;;;2.65;2.55;;;20.20;99.90;;;20.63;97.13;101859.84;5041802;28;20061;-79
2023/08/23 04:46:44;;;;;;;2.90;2.80;;;20.20;99.90;;;20.68;96.97;101851.66;5048532;28;20056;-80
2023/08/23 04:49:13;;;;;;;3.03;2.92;;;20.20;99.90;;;20.62;96.98;101852.72;5051579;28;20153;-81
2023/08/23 04:51:42;;;;;;;2.60;2.50;;;20.20;99.90;;;20.60;97.10;101854.59;5048544;28;20056;-81
2023/08/23 04:54:11;;;;;;;2.67;2.58;;;20.20;99.90;;;20.57;97.31;101848.44;5040723;28;20041;-80
2023/08/23 04:56:40;;;;;;;2.85;2.75;;;20.10;99.90;;;20.56;97.34;101855.59;5043750;28;20072;-80
2023/08/23 04:59:08;;;;;;;2.58;2.47;;;20.20;99.90;;;20.56;97.33;101860.97;5044426;28;20057;-81
2023/08/23 05:01:38;;;;;;;3.90;3.75;;;20.10;99.90;;;20.40;97.34;101838.16;5042059;28;20042;-80
2023/08/23 05:04:07;;;;;;;2.63;2.53;;;20.10;99.90;;;20.53;97.24;101854.81;5043323;28;20045;-80
2023/08/23 05:06:36;;;;;;;2.92;2.83;;;20.10;99.90;;;20.36;97.27;101855.28;5042115;28;20324;-79
2023/08/23 05:09:05;;;;;;;3.25;3.10;;;20.00;99.90;;;20.36;97.43;101847.22;5049131;28;20093;-79
2023/08/23 05:11:33;;;;;;;2.95;2.85;;;19.90;99.90;;;20.43;97.60;101861.38;5042373;28;20057;-79
2023/08/23 05:14:02;;;;;;;3.10;3.00;;;20.00;99.90;;;20.40;97.64;101854.28;5048154;28;20053;-79
2023/08/23 05:16:30;;;;;;;3.03;2.92;;;20.00;99.90;;;20.38;97.78;101856.13;5039488;28;20045;-78
2023/08/23 05:19:00;;;;;;;2.78;2.67;;;20.00;99.90;;;19.91;97.87;101780.47;5031504;28;20060;-79
2023/08/23 05:21:29;;;;;;;2.80;2.70;;;20.00;99.90;;;20.46;98.13;101851.41;5032237;28;20041;-80
2023/08/23 05:23:57;;;;;;;2.40;2.30;;;20.10;99.90;;;20.48;98.21;101854.94;5031982;28;20103;-79
2023/08/23 05:26:25;;;;;;;2.78;2.67;;;20.20;99.90;;;20.52;98.55;101851.25;5036949;28;20052;-80
2023/08/23 05:28:55;;;;;;;2.58;2.47;;;20.20;99.90;;;20.57;98.67;101853.81;5053888;28;20057;-79
2023/08/23 05:31:24;;;;;;;2.90;2.80;;;20.20;99.90;;;20.63;98.53;101862.53;5041263;28;20131;-80
2023/08/23 05:33:52;;;;;;;3.88;3.67;;;20.30;99.90;;;20.65;98.70;101851.78;5040322;28;20609;-79
2023/08/23 05:36:24;;;;;;;2.63;2.53;;;20.30;99.90;;;20.71;98.73;101853.38;5042948;28;20437;-80
2023/08/23 05:38:53;;;;;;;;;;;20.30;99.90;;;20.76;98.97;101856.81;5031788;28;20387;-79
2023/08/23 05:41:22;;;;;;;5.30;5.00;;;20.40;99.90;;;20.82;98.94;101852.13;5038810;28;19925;-80
2023/08/23 05:43:51;;;;;;;2.50;2.40;;;20.50;99.90;;;20.95;98.85;101860.69;5041581;28;20045;-79
2023/08/23 05:46:19;;;;;;;2.53;2.42;;;20.50;99.90;;;21.04;98.80;101869.38;5042830;28;20080;-79
2023/08/23 05:48:49;;;;;;;2.72;2.63;;;20.70;99.90;;;21.15;98.44;101879.81;5041015;28;20056;-79
2023/08/23 05:51:18;;;;;;;2.63;2.53;;;20.80;99.90;;;21.23;98.07;101877.78;5040523;28;20106;-77
2023/08/23 05:53:48;;;;;;;2.28;2.17;;;20.90;99.90;;;21.32;97.92;101867.59;5043049;28;20068;-80
2023/08/23 05:56:16;;;;;;;2.40;2.30;;;20.90;99.90;;;21.39;97.70;101884.41;5040969;28;20049;-80
2023/08/23 05:58:44;;;;;;;2.63;2.53;;;21.00;99.90;;;21.42;97.98;101884.31;5044122;28;20045;-79
2023/08/23 06:01:13;;;;;;;2.33;2.22;;;21.00;99.90;;;21.51;97.88;101889.38;5032017;28;20475;-80
2023/08/23 06:03:41;;;;;;;2.60;2.50;;;21.10;99.90;;;21.58;97.71;101890.97;5032290;28;20037;-80
2023/08/23 06:06:09;;;;;;;3.05;2.95;;;21.20;99.90;;;21.63;97.85;101888.97;5032257;28;20467;-81
2023/08/23 06:08:38;;;;;;;2.70;2.60;;;21.30;99.90;;;21.62;98.83;101898.00;5036249;28;20491;-81
2023/08/23 06:11:08;;;;;;;2.75;2.55;;;21.30;99.90;;;21.60;99.29;101894.47;5041632;28;20463;-80
2023/08/23 06:13:36;;;;;;;2.70;2.60;;;21.30;99.90;;;21.61;99.44;101893.53;5042104;28;20517;-80
2023/08/23 06:16:05;;;;;;;2.42;2.33;;;21.30;99.90;;;21.57;99.86;101894.56;5042957;28;20284;-77
2023/08/23 06:18:33;;;;;;;3.17;3.08;;;21.20;99.90;;;21.62;99.66;101907.91;5041348;28;20061;-79
2023/08/23 06:21:01;;;;;;;2.30;2.20;;;21.20;99.90;;;21.10;99.89;101803.75;5043330;28;20045;-81
2023/08/23 06:23:30;;;;;;;2.67;2.58;;;21.30;99.90;;;21.63;100.00;101909.63;5038961;28;20050;-79
2023/08/23 06:26:03;;;;;;;2.78;2.67;;;21.30;99.90;;;21.66;100.00;101907.72;5042310;28;20048;-80
2023/08/23 06:28:33;;;;;;;2.50;2.40;;;21.30;99.90;;;21.63;100.00;101899.75;5044705;28;20049;-81
2023/08/23 06:31:01;;;;;;;2.63;2.53;;;21.30;99.90;;;21.72;100.00;101901.28;5046060;28;20650;-78
2023/08/23 06:33:29;;;;;;;2.78;2.67;;;21.40;99.90;;;21.69;100.00;101899.56;5045427;28;20476;-80
2023/08/23 06:35:58;;;;;;;3.28;3.17;;;21.30;99.90;;;21.72;100.00;101893.19;5045103;28;20548;-79
2023/08/23 06:38:26;;;;;;;2.58;2.47;;;21.30;99.90;;;21.77;100.00;101902.88;5046601;28;20060;-79
2023/08/23 06:40:54;;;;;;;2.63;2.53;;;21.40;99.90;;;21.84;100.00;101908.94;5044746;28;20431;-80
2023/08/23 06:43:26;;;;;;;3.28;3.08;;;21.50;99.90;;;21.85;100.00;101906.22;5046923;28;20069;-80
2023/08/23 06:45:55;;;;;;;2.97;2.88;;;21.50;99.90;;;21.81;100.00;101904.56;5035635;28;20407;-79
2023/08/23 06:48:24;;;;;;;2.80;2.70;;;21.50;99.90;;;21.78;100.00;101907.31;5035201;28;20038;-79
2023/08/23 06:50:52;;;;;;;2.42;2.33;;;21.50;99.90;;;21.85;100.00;101910.72;5042405;28;20148;-79
2023/08/23 06:53:21;;;;;;;2.65;2.55;;;21.50;99.90;;;21.88;100.00;101908.81;5035518;28;20045;-83
2023/08/23 06:55:49;;;;;;;2.88;2.78;;;21.60;99.90;;;21.91;99.63;101914.06;5045164;28;20507;-85
2023/08/23 06:58:17;;;;;;;2.63;2.53;;;21.60;99.90;;;21.97;99.59;101913.00;5045167;28;20056;-77
2023/08/23 07:00:46;;;;;;;2.42;2.33;;;21.60;99.90;;;22.07;99.12;101918.00;5045740;28;20049;-77
2023/08/23 07:03:15;;;;;;;3.03;2.83;;;21.70;99.90;;;22.10;99.54;101915.22;5044194;28;20107;-77
2023/08/23 07:05:44;;;;;;;2.40;2.30;;;21.80;99.90;;;22.04;99.39;101915.44;5046541;28;20053;-78
2023/08/23 07:08:12;;;;;;;2.20;2.10;;;21.70;99.90;;;22.15;99.31;101923.13;5043396;28;20291;-77
2023/08/23 07:10:41;;;;;;;2.88;2.78;;;21.80;99.90;;;22.18;99.03;101918.50;5035054;28;20038;-76
2023/08/23 07:13:11;;;;;;;;;;;21.90;99.90;;;22.16;98.99;101923.06;5035540;28;20053;-78
2023/08/23 07:15:40;;;;;;;2.47;2.38;;;21.80;99.90;;;22.23;98.72;101921.94;5035031;28;19964;-73
2023/08/23 07:18:09;;;;;;;2.30;2.20;;;21.90;99.90;;;22.26;98.67;101927.19;5036712;28;20049;-78
2023/08/23 07:20:39;;;;;;;2.63;2.53;;;21.90;99.90;;;22.23;97.99;101930.00;5044900;28;20090;-78
2023/08/23 07:23:07;;;;;;;2.60;2.50;;;21.90;99.90;;;22.30;97.89;101939.63;5045610;28;20499;-76
2023/08/23 07:25:36;;;;;;;3.08;2.97;;;22.00;99.90;;;22.33;97.98;101935.97;5042036;28;20119;-69
2023/08/23 07:28:05;;;;;;;2.60;2.50;;;22.00;99.90;;;22.40;97.98;101932.97;5045593;28;20045;-74
2023/08/23 07:30:33;;;;;;;2.20;2.10;;;22.00;99.90;;;22.33;96.86;101926.06;5042847;28;20053;-81
2023/08/23 07:33:02;;;;;;;2.30;2.20;;;22.00;99.90;;;22.42;96.86;101924.81;5034951;28;20045;-73
2023/08/23 07:35:31;;;;;;;2.70;2.60;;;22.10;99.90;;;22.53;96.15;101937.94;5042059;28;20418;-72
2023/08/23 07:38:02;;;;;;;3.03;2.93;;;22.20;99.90;;;22.54;96.12;101945.06;5051259;28;20152;-70
2023/08/23 07:40:31;;;;;;;4.40;2.20;;;22.20;99.90;;;22.64;96.03;101941.16;5043820;28;20049;-69
2023/08/23 07:42:59;;;;;;;3.13;3.03;;;22.30;99.90;;;22.71;96.42;101948.94;5050503;28;20162;-72
2023/08/23 07:45:27;;;;;;;2.65;2.55;;;22.40;99.90;;;22.84;96.79;101944.00;5044693;28;20050;-72
2023/08/23 07:47:56;;;;;;;2.45;2.35;;;22.50;99.90;;;22.96;95.62;101938.09;5043035;28;20053;-70
2023/08/23 07:50:24;;;;;;;2.63;2.53;;;22.60;99.90;;;23.15;95.44;101948.13;5045262;28;20040;-76
2023/08/23 07:52:54;;;;;;;2.20;2.10;;;22.80;99.90;;;23.18;94.06;101947.13;5041982;28;20120;-80
2023/08/23 07:55:24;;;;;;;2.38;2.28;;;22.90;99.90;;;23.24;93.01;101955.00;5042415;28;20049;-82
2023/08/23 07:57:52;;;;;;;2.25;2.15;;;23.00;99.90;;;23.29;91.29;101958.38;5051694;28;20053;-75
2023/08/23 08:00:21;;;;;;;2.17;2.08;;;23.00;99.90;;;23.39;91.22;101959.81;5043390;28;20076;-76
2023/08/23 08:02:51;;;;;;;2.28;2.17;;;23.10;99.90;;;23.54;90.73;101970.00;5044052;28;20033;-74
2023/08/23 08:05:20;;;;;;;2.30;2.20;;;23.20;99.90;;;23.69;90.14;101963.97;5044442;28;20045;-69
2023/08/23 08:07:49;;;;;;;2.00;1.90;;;23.40;99.90;;;23.87;89.32;101965.03;5049948;28;20045;-71
2023/08/23 08:10:20;;;;;;;3.55;3.38;;;23.60;99.90;;;24.04;88.33;101963.41;5045433;28;20049;-73
2023/08/23 08:12:50;;;;;;;2.20;2.10;;;23.80;99.90;;;24.23;86.90;101973.44;5033848;28;20054;-73
2023/08/23 08:15:19;;;;;;;2.35;2.25;;;23.90;99.90;;;24.37;85.75;101974.59;5045596;28;20056;-72
2023/08/23 08:17:50;;;;;;;2.00;1.90;;;24.10;99.90;;;24.46;84.61;101966.09;5044927;28;20414;-73
2023/08/23 08:20:19;;;;;;;2.50;2.40;;;24.20;99.90;;;24.59;83.51;101977.22;5043694;28;20479;-72
2023/08/23 08:22:48;;;;;;;2.63;2.53;;;24.30;99.90;;;24.64;82.52;101961.69;5043542;28;20099;-72
2023/08/23 08:25:17;;;;;;;2.10;2.00;;;24.40;99.90;;;24.83;82.91;101963.53;5044486;28;20045;-72
2023/08/23 08:27:45;;;;;;;2.10;2.00;;;24.60;99.90;;;25.05;82.36;101963.38;5042484;28;20128;-72
2023/08/23 08:30:16;;;;;;;1.90;1.80;;;24.80;99.90;;;25.22;80.80;101966.19;5045103;28;20052;-72
2023/08/23 08:32:45;;;;;;;2.78;2.58;;;25.00;99.90;;;25.37;80.45;101964.56;5033559;28;20080;-71
2023/08/23 08:35:13;;;;;;;1.63;1.63;;;25.10;99.90;;;25.60;79.85;101972.50;5033551;28;20137;-74
2023/08/23 08:37:41;;;;;;;4.38;4.00;;;25.30;99.90;;;25.80;79.23;101981.38;5033480;28;20041;-72
2023/08/23 08:40:11;;;;;;;1.95;1.85;;;25.50;99.90;;;25.79;77.68;101984.19;5034848;28;20049;-77
2023/08/23 08:42:40;;;;;;;2.97;2.78;;;25.50;99.90;;;26.05;78.09;101991.00;5043726;28;20098;-72
2023/08/23 08:45:10;;;;;;;1.67;1.67;;;25.70;99.90;;;26.25;77.05;101982.78;5043398;28;20069;-73
2023/08/23 08:47:41;;;;;;;1.50;1.50;;;26.00;99.90;;;26.39;75.97;101980.22;5041499;28;20103;-76
2023/08/23 08:50:10;;;;;;;1.52;1.52;;;26.10;99.90;;;26.50;75.70;101975.13;5044314;28;20052;-76
2023/08/23 08:52:43;;;;;;;1.60;1.60;;;26.20;99.90;;;26.51;74.84;101979.56;5032806;28;20087;-71
2023/08/23 08:55:12;;;;;;;1.70;1.70;;;26.30;99.90;;;26.58;73.11;101986.41;5033132;28;20099;-79
2023/08/23 08:57:41;;;;;;;1.75;1.75;;;26.40;99.90;;;26.30;73.55;101957.16;5032532;28;20037;-80
2023/08/23 09:00:11;;;;;;;1.67;1.67;;;26.30;99.90;;;26.47;73.75;101986.13;5034425;28;20466;-81
2023/08/23 09:02:43;;;;;;;1.70;1.70;;;26.20;99.90;;;26.20;74.05;101901.63;5041861;28;20091;-82
2023/08/23 09:05:11;;;;;;;1.92;1.85;;;26.40;99.90;;;26.75;73.32;101978.31;5043772;28;20056;-82
2023/08/23 09:07:41;;;;;;;1.58;1.58;;;26.50;99.90;;;26.78;72.46;101983.56;5040815;28;20041;-75
2023/08/23 09:10:11;;;;;;;1.70;1.70;;;26.60;99.90;;;27.03;73.53;101985.81;5039678;28;20057;-73
2023/08/23 09:12:39;;;;;;;1.42;1.42;;;26.80;99.90;;;27.05;71.71;101986.59;5044019;28;20052;-75
2023/08/23 09:15:09;;;;;;;2.13;2.03;;;26.80;99.90;;;27.26;71.97;101990.84;5042137;28;20049;-75
2023/08/23 09:17:38;;;;;;;1.67;1.65;;;27.00;99.90;;;27.42;70.28;101997.22;5042641;28;20086;-73
2023/08/23 09:20:10;;;;;;;1.40;1.40;;;27.20;99.90;;;27.48;69.69;101973.31;5043034;28;20033;-75
2023/08/23 09:22:38;;;;;;;1.35;1.35;;;27.30;99.90;;;27.71;69.00;101998.28;5041325;28;20053;-75
2023/08/23 09:25:08;;;;;;;2.67;2.42;;;27.40;99.90;;;27.95;68.33;101994.19;5044803;28;20437;-75
2023/08/23 09:27:38;;;;;;;1.30;1.30;;;27.60;99.90;;;28.11;66.87;101990.44;5044482;28;20155;-75
2023/08/23 09:30:08;;;;;;;1.33;1.33;;;27.90;99.90;;;28.24;66.60;101990.59;5041159;28;20280;-76
2023/08/23 09:32:37;;;;;;;1.17;1.17;;;28.00;99.90;;;28.38;64.45;101987.91;5043281;28;20090;-75
2023/08/23 09:35:15;;;;;;;1.55;1.55;;;28.20;99.90;;;28.31;63.28;101981.97;5042245;28;20037;-75
2023/08/23 09:37:45;;;;;;;1.10;1.10;;;28.10;99.90;;;28.36;63.31;101976.22;5040790;28;20769;-75
2023/08/23 09:40:18;;;;;;;;;;;28.10;99.90;;;28.37;63.07;101978.88;5041459;28;20045;-74
2023/08/23 09:42:47;;;;;;;1.58;1.50;;;28.20;99.90;;;28.48;62.35;101980.94;5041452;28;19921;-75
2023/08/23 09:45:19;;;;;;;1.20;1.20;;;28.20;99.90;;;28.63;62.84;101977.28;5049624;28;20053;-75
2023/08/23 09:47:52;;;;;;;1.60;1.60;;;28.40;99.90;;;28.79;62.60;101978.09;5042505;28;20045;-75
2023/08/23 09:50:24;;;;;;;1.20;1.20;;;28.50;99.90;;;28.82;62.21;101977.94;5041328;28;20045;-74
2023/08/23 09:52:59;;;;;;;1.30;1.30;;;28.60;99.90;;;28.84;60.86;101978.66;5043012;28;20457;-74
2023/08/23 09:55:29;;;;;;;1.20;1.20;;;28.60;99.90;;;28.83;60.40;101976.06;5032570;28;20557;-75
2023/08/23 09:57:58;;;;;;;1.30;1.30;;;28.60;99.90;;;28.81;60.36;101967.09;5032391;28;20243;-74
2023/08/23 10:00:28;;;;;;;1.30;1.30;;;28.60;99.90;;;28.98;60.55;101973.25;5035632;28;20142;-75
2023/08/23 10:02:57;;;;;;;1.60;1.60;;;28.70;99.90;;;28.76;58.81;101942.00;5046769;28;20053;-74
2023/08/23 10:05:27;;;;;;;;;;;28.70;99.90;;;29.00;59.17;101965.84;5051589;28;20053;-75
2023/08/23 10:07:57;;;;;;;1.10;1.10;;;28.70;99.90;;;29.01;58.56;101964.00;5035800;28;19932;-75
2023/08/23 10:10:27;;;;;;;1.27;1.27;;;28.80;99.90;;;29.12;59.10;101965.06;5035791;28;20349;-75
2023/08/23 10:13:01;;;;;;;1.20;1.20;;;28.80;99.90;;;29.25;58.04;101960.59;5035621;28;20052;-75
2023/08/23 10:15:33;;;;;;;1.15;1.15;;;29.00;99.90;;;29.30;57.60;101965.75;5038682;28;20124;-75
2023/08/23 10:18:05;;;;;;;1.10;1.10;;;29.00;99.90;;;29.29;54.60;101955.81;5044638;28;20054;-74
2023/08/23 10:20:37;;;;;;;1.10;1.10;;;29.00;99.90;;;29.19;54.75;101968.31;5051296;28;20487;-74
2023/08/23 10:23:12;;;;;;;1.30;1.30;;;29.00;99.90;;;29.36;55.43;101957.19;5046918;28;20093;-74